Audubon Park, New Jersey
Current Conditions -  °F | °C
As of 5:54 PM on Friday 19 Dec 2014 (Local Time) from KPHL Reporting Station
Clear Clear  
Wind Chill: 33°   Ceiling: Unl
Heat Index: 39°   Visibility: 10mi
Dew Point: 21°   Wind: 9mph
Humidity: 49%   Direction: 320°NW
Pressure: 30.16"   Gusts: NA
Location:  39.891°N, 75.0738°W
Report Text: KPHL 192254Z 32008KT 10SM CLR 04/M06 A3016 RMK AO2 SLP211 T00391061
Loading
Personal Weather Stations






























Interactive Weather Map New forecast layout! Learn more

10-Day Weather Forecast

Advertisements
Track Severe Weather on mobile